Nearby METAR Reports

 

KMEV - Minden, Nevada, USA
Distance from station: N 3mi, 5km
Updated: Sat, 25-Feb-2017 12:55pm PST
Few Clouds
Few Clouds
 Wind from NW
Wind: NW 7 mph , 11 km/h
Temperature: 36°F , 2°C
Wind Chill: 30°F , -1°C
Dew Point: 16°F , -9°C
Humidity: 44%
Barometer: 30.03 inHg , 1016.9 hPa
Clouds: Few Clouds
Visibility: 10 miles , 16 km
Cloud details: Few Clouds 4600 ft
Few Clouds 6000 ft
2017/02/25 20:55 KMEV 252055Z AUTO 32006KT 10SM FEW046 FEW060 02/M09 A3003 RMK AO2
KCXP - Carson City, Nevada, USA
Distance from station: N 10mi, 16km
Updated: Sat, 25-Feb-2017 12:55pm PST
Overcast
Overcast
 Wind from ESE
Wind: ESE 8 mph , 13 km/h
Temperature: 36°F , 2°C
Wind Chill: 30°F , -1°C
Dew Point: 19°F , -7°C
Humidity: 52%
Barometer: 30.04 inHg , 1017.3 hPa
Clouds: Overcast
Visibility: 10 miles , 16 km
Cloud details: Mostly cloudy 4800 ft
Overcast 5000 ft
2017/02/25 20:55 KCXP 252055Z AUTO 11007KT 10SM BKN048 OVC050 02/M07 A3004 RMK AO2
 
KTVL - South Lake Tahoe, California, USA
Distance from station: WSW 18mi, 29km
Updated: Sat, 25-Feb-2017 12:53pm PST
Mostly cloudy
Mostly cloudy
 Wind from varies
Wind: varies 6 mph , 9 km/h
Temperature: 32°F , 0°C
Wind Chill: 26°F , -3°C
Dew Point: 12°F , -11°C
Humidity: 44%
Barometer: 29.97 inHg , 1014.9 hPa
Clouds: Mostly cloudy
Visibility: 10 miles , 16 km
Cloud details: Partly cloudy 4600 ft
Mostly cloudy 5500 ft
2017/02/25 20:53 KTVL 252053Z AUTO VRB05KT 10SM SCT046 BKN055 00/M11 A2997 RMK AO2 SLP164 T00001111 58013 $
KTRK - Truckee Tahoe, California, USA
Distance from station: NW 29mi, 46km
Updated: Sat, 25-Feb-2017 12:55pm PST
Mostly cloudy
Mostly cloudy
 Wind from calm
Wind: Calm
Temperature: 27°F , -3°C
Dew Point: 18°F , -8°C
Humidity: 69%
Barometer: 30.01 inHg , 1016.3 hPa
Clouds: Mostly cloudy
Visibility: 10 miles , 16 km
Cloud details: Few Clouds 3700 ft
Mostly cloudy 4500 ft
2017/02/25 20:55 KTRK 252055Z 00000KT 10SM FEW037 BKN045 M03/M08 A3001 RMK NOSPECI
 
KRNO - Reno, Nevada, USA
Distance from station: N 31mi, 50km
Updated: Sat, 25-Feb-2017 12:55pm PST
Mostly cloudy
Mostly cloudy
 Wind from calm
Wind: Calm
Temperature: 36°F , 2°C
Dew Point: 21°F , -6°C
Humidity: 56%
Barometer: 30.05 inHg , 1017.6 hPa
Clouds: Mostly cloudy
Visibility: 10 miles , 16 km
Cloud details: Mostly cloudy 3700 ft
Mostly cloudy 5500 ft
2017/02/25 20:55 KRNO 252055Z 00000KT 10SM BKN037 BKN055 02/M06 A3005 RMK AO2 SLP185 SH VC S-W MTN TOPS OBSCD SE-SW-NW 60000 T00221061 58015
KRTS - Reno/Stead, Nevada, USA
Distance from station: NNW 44mi, 71km
Updated: Sat, 25-Feb-2017 12:55pm PST
Overcast
Overcast
 Wind from E
Wind: E 3 mph , 6 km/h
Temperature: 28°F , -2°C
Dew Point: 19°F , -7°C
Humidity: 69%
Barometer: 30.04 inHg , 1017.3 hPa
Clouds: Overcast
Visibility: 9 miles , 14 km
Cloud details: Mostly cloudy 2700 ft
Overcast 6000 ft
2017/02/25 20:55 KRTS 252055Z AUTO 08003KT 9SM BKN027 OVC060 M02/M07 A3004 RMK AO2
 
KBLU - Emigrant Gap, California, USA
Distance from station: WNW 55mi, 89km
Updated: Sat, 25-Feb-2017 12:52pm PST
Overcast
Overcast
 Wind from varies
Wind: varies 3 mph , 6 km/h
Temperature: 30°F , -1°C
Dew Point: 21°F , -6°C
Humidity: 69%
Barometer: 30.03 inHg , 1016.9 hPa
Clouds: Overcast
Visibility: 10 miles , 16 km
Cloud details: Mostly cloudy 4200 ft
Overcast 4900 ft
2017/02/25 20:52 KBLU 252052Z AUTO VRB03KT 10SM BKN042 OVC049 M01/M06 A3003 RMK AO2 SLP196 T10061061 58011 TSNO
KPVF - Placerville, California, USA
Distance from station: WSW 60mi, 96km
Updated: Sat, 25-Feb-2017 12:55pm PST
Few Clouds
Few Clouds
 Wind from WSW
Wind: WSW 6 mph , 9 km/h
Temperature: 46°F , 8°C
Wind Chill: 43°F , 6°C
Dew Point: 27°F , -3°C
Humidity: 46%
Barometer: 30.07 inHg , 1018.3 hPa
Clouds: Few Clouds
Visibility: 10 miles , 16 km
Cloud details: Few Clouds 5000 ft
2017/02/25 20:55 KPVF 252055Z AUTO 25005KT 10SM FEW050 08/M03 A3007 RMK AO1
 
KNFL - Fallon Nas, Nevada, USA
Distance from station: ENE 61mi, 97km
Updated: Sat, 25-Feb-2017 12:56pm PST
Mostly cloudy
Mostly cloudy
 Wind from NNE
Wind: NNE 8 mph , 13 km/h
Temperature: 37°F , 3°C
Wind Chill: 31°F , -1°C
Dew Point: 21°F , -6°C
Humidity: 52%
Barometer: 30.07 inHg , 1018.3 hPa
Clouds: Mostly cloudy
Visibility: 10 miles , 16 km
Cloud details: Partly cloudy 3500 ft
Mostly cloudy 4500 ft
Mostly cloudy 25000 ft
2017/02/25 20:56 KNFL 252056Z 03007KT 10SM SCT035 BKN045 BKN250 03/M06 A3007 RMK AO2 SLP151 60000 T00331061 58016
KGOO - Grass Valley, California, USA
Distance from station: W 70mi, 112km
Updated: Sat, 25-Feb-2017 12:55pm PST
Mostly cloudy
Mostly cloudy
 Wind from calm
Wind: Calm
Temperature: 41°F , 5°C
Dew Point: 25°F , -4°C
Humidity: 53%
Barometer: 30.07 inHg , 1018.3 hPa
Clouds: Mostly cloudy
Visibility: 10 miles , 16 km
Cloud details: Few Clouds 3800 ft
Mostly cloudy 4900 ft
2017/02/25 20:55 KGOO 252055Z AUTO 00000KT 10SM FEW038 BKN049 05/M04 A3007 RMK AO1
 
KAUN - Auburn Muni, California, USA
Distance from station: W 73mi, 118km
Updated: Sat, 25-Feb-2017 12:55pm PST
Partly cloudy
Partly cloudy
 Wind from W
Wind: W 9 mph , 15 km/h
Temperature: 50°F , 10°C
Wind Chill: 46°F , 8°C
Dew Point: 37°F , 3°C
Humidity: 62%
Barometer: 30.10 inHg , 1019.3 hPa
Clouds: Partly cloudy
Visibility: 10 miles , 16 km
Cloud details: Few Clouds 3600 ft
Partly cloudy 4900 ft
2017/02/25 20:55 KAUN 252055Z AUTO 28008KT 10SM FEW036 SCT049 10/03 A3010 RMK AO1
KO22 - Columbia, California, USA
Distance from station: SSW 79mi, 127km
Updated: Sat, 25-Feb-2017 12:55pm PST
Clear
Clear
 Wind from W
Wind: W 6 mph , 9 km/h
Temperature: 52°F , 11°C
Dew Point: 28°F , -2°C
Humidity: 41%
Barometer: 30.09 inHg , 1019 hPa
Clouds: Clear
Visibility: 10 miles , 16 km
2017/02/25 20:55 KO22 252055Z AUTO 27005KT 10SM CLR 11/M02 A3009 RMK AO1
 
KLHM - Lincoln, California, USA
Distance from station: W 88mi, 141km
Updated: Sat, 25-Feb-2017 12:55pm PST
Clear
Clear
 Wind from WNW
Wind: WNW 7 mph , 11 km/h
Temperature: 52°F , 11°C
Dew Point: 32°F , 0°C
Humidity: 47%
Barometer: 30.12 inHg , 1020 hPa
Clouds: Clear
Visibility: 10 miles , 16 km
2017/02/25 20:55 KLHM 252055Z AUTO 29006KT 10SM CLR 11/00 A3012 RMK AO1
KBAB - Beale Afb/Marysv, California, USA
Distance from station: W 91mi, 147km
Updated: Sat, 25-Feb-2017 12:58pm PST
Few Clouds
Few Clouds
 Wind from WNW
Wind: WNW 7 mph , 11 km/h
Temperature: 54°F , 12°C
Dew Point: 37°F , 3°C
Humidity: 54%
Barometer: 30.11 inHg , 1019.6 hPa
Clouds: Few Clouds
Visibility: 10 miles , 16 km
Cloud details: Few Clouds 3800 ft
2017/02/25 20:58 KBAB 252058Z AUTO 29006KT 10SM FEW038 12/03 A3011 RMK AO2 SLP200 T01220031 57021 $
 
KMHR - Mather Field, California, USA
Distance from station: WSW 91mi, 147km
Updated: Sat, 25-Feb-2017 12:45pm PST

 
Visibility: 0 mile
2017/02/25 20:45 KMHR 252045Z 0000KT 10SM FEW030 12/00 A3013 RMK PRESFR
KLOL - Lovelock, Nevada, USA
Distance from station: NE 94mi, 151km
Updated: Sat, 25-Feb-2017 12:53pm PST
Few Clouds
Few Clouds
 Wind from W
Wind: W 7 mph , 11 km/h
Temperature: 34°F , 1°C
Wind Chill: 28°F , -2°C
Dew Point: 25°F , -4°C
Humidity: 70%
Barometer: 30.08 inHg , 1018.6 hPa
Clouds: Few Clouds
Visibility: 10 miles , 16 km
Cloud details: Few Clouds 3100 ft
2017/02/25 20:53 KLOL 252053Z AUTO 26006KT 10SM FEW031 01/M04 A3008 RMK AO2 UPE1955SNB1955E09 SLP206 P0000 60000 T00111039 58014
 
KMCC - Mcclellan Afb, California, USA
Distance from station: WSW 94mi, 151km
Updated: Sat, 25-Feb-2017 12:55pm PST
Clear
Clear
 Wind from WNW
Wind: WNW 9 mph , 15 km/h
Temperature: 52°F , 11°C
Dew Point: 37°F , 3°C
Humidity: 58%
Barometer: 30.14 inHg , 1020.7 hPa
Clouds: Clear
Visibility: 10 miles , 16 km
2017/02/25 20:55 KMCC 252055Z AUTO 29008KT 10SM CLR 11/03 A3014 RMK AO2
KMYV - Marysville, California, USA
Distance from station: W 99mi, 159km
Updated: Sat, 25-Feb-2017 12:53pm PST
Clear
Clear
 Wind from W
Wind: W 9 mph , 15 km/h
Temperature: 52°F , 11°C
Dew Point: 36°F , 2°C
Humidity: 54%
Barometer: 30.14 inHg , 1020.7 hPa
Clouds: Clear
Visibility: 10 miles , 16 km
2017/02/25 20:53 KMYV 252053Z AUTO 28008KT 10SM CLR 11/02 A3014 RMK AO2 SLP209 T01110022 58020
Honor Flight NV - Honoring all of our Veterans CoCoRaHS (Community Collaborative Rain, Hail and Snow Network) Station Number: NV-DG-2 Live Lightning Map - USA Reno Skywarn Spotter ID: DO21 AlertID Southwestern Weather Network Carson Valley Community Food Closet - providing for the needs of our community